createdAt,value
2022-08-26T00:00:20.847Z,97904.72
2022-08-26T00:01:24.335Z,97901.66
2022-08-26T00:02:32.793Z,97898.97
2022-08-26T00:03:36.694Z,97901.66
2022-08-26T00:04:39.481Z,97903.56
2022-08-26T00:05:43.619Z,97897.47
2022-08-26T00:06:46.547Z,97896.34
2022-08-26T00:07:50.146Z,97900.91
2022-08-26T00:08:54.501Z,97898.25
2022-08-26T00:09:57.562Z,97894.78
2022-08-26T00:11:00.953Z,97897.81
2022-08-26T00:12:05.878Z,97905.47
2022-08-26T00:13:10.448Z,97895.50
2022-08-26T00:14:14.080Z,97898.56
2022-08-26T00:15:20.973Z,97903.16
2022-08-26T00:16:26.005Z,97899.34
2022-08-26T00:17:28.980Z,97898.22
2022-08-26T00:18:33.185Z,97896.31
2022-08-26T00:19:41.642Z,97893.25
2022-08-26T00:20:44.684Z,97896.25
2022-08-26T00:21:48.643Z,97893.25
2022-08-26T00:22:52.690Z,97901.25
2022-08-26T00:23:55.558Z,97906.19
2022-08-26T00:24:58.535Z,97906.94
2022-08-26T00:26:02.595Z,97899.72
2022-08-26T00:27:06.386Z,97896.66
2022-08-26T00:28:10.829Z,97905.44
2022-08-26T00:29:14.779Z,97907.69
2022-08-26T00:30:24.161Z,97899.69
2022-08-26T00:31:31.120Z,97903.88
2022-08-26T00:32:34.940Z,97895.09
2022-08-26T00:33:40.734Z,97900.03
2022-08-26T00:34:47.158Z,97893.59
2022-08-26T00:35:51.560Z,97903.50
2022-08-26T00:36:54.818Z,97901.94
2022-08-26T00:37:58.062Z,97901.59
2022-08-26T00:39:00.940Z,97903.16
2022-08-26T00:40:07.661Z,97897.78
2022-08-26T00:41:14.442Z,97895.09
2022-08-26T00:42:19.985Z,97896.25
2022-08-26T00:43:25.703Z,97897.00
2022-08-26T00:44:28.501Z,97894.75
2022-08-26T00:45:47.479Z,97894.75
2022-08-26T00:46:56.114Z,97900.06
2022-08-26T00:48:03.802Z,97890.16
2022-08-26T00:49:44.556Z,97886.34
2022-08-26T00:51:03.630Z,97887.84
2022-08-26T00:52:14.866Z,97886.34
2022-08-26T00:53:26.039Z,97881.75
2022-08-26T00:54:36.314Z,97890.53
2022-08-26T00:55:45.311Z,97882.91
2022-08-26T00:57:02.753Z,97889.37
2022-08-26T00:58:08.476Z,97889.41
2022-08-26T00:59:13.499Z,97884.81
2022-08-26T01:00:24.288Z,97888.59
2022-08-26T01:01:28.678Z,97890.16
2022-08-26T01:02:33.641Z,97890.91
2022-08-26T01:03:39.435Z,97887.09
2022-08-26T01:04:43.214Z,97880.22
2022-08-26T01:05:48.546Z,97882.13
2022-08-26T01:06:54.731Z,97889.00
2022-08-26T01:07:57.476Z,97885.19
2022-08-26T01:09:00.333Z,97885.94
2022-08-26T01:10:06.959Z,97885.94
2022-08-26T01:11:12.767Z,97891.63
2022-08-26T01:12:15.743Z,97884.78
2022-08-26T01:13:25.601Z,97891.28
2022-08-26T01:14:33.000Z,97885.19
2022-08-26T01:15:49.471Z,97887.50
2022-08-26T01:16:53.312Z,97882.13
2022-08-26T01:17:58.572Z,97885.19
2022-08-26T01:19:16.052Z,97889.00
2022-08-26T01:20:57.663Z,97888.25
2022-08-26T01:22:10.474Z,97882.16
2022-08-26T01:23:15.351Z,97884.44
2022-08-26T01:24:18.831Z,97887.84
2022-08-26T01:25:24.260Z,97887.50
2022-08-26T01:26:35.479Z,97876.06
2022-08-26T01:27:39.010Z,97878.72
2022-08-26T01:28:42.925Z,97877.19
2022-08-26T01:29:49.554Z,97874.91
2022-08-26T01:30:55.211Z,97878.31
2022-08-26T01:32:02.200Z,97871.84
2022-08-26T01:33:15.397Z,97880.59
2022-08-26T01:34:22.482Z,97881.00
2022-08-26T01:35:25.672Z,97874.91
2022-08-26T01:36:29.183Z,97873.34
2022-08-26T01:37:40.326Z,97879.06
2022-08-26T01:38:45.042Z,97875.25
2022-08-26T01:39:54.055Z,97879.09
2022-08-26T01:40:57.436Z,97876.41
2022-08-26T01:42:03.188Z,97879.84
2022-08-26T01:43:09.063Z,97874.47
2022-08-26T01:44:21.603Z,97876.00
2022-08-26T01:45:28.785Z,97882.50
2022-08-26T01:46:32.724Z,97877.94
2022-08-26T01:47:38.121Z,97880.59
2022-08-26T01:48:43.045Z,97881.75
2022-08-26T01:49:50.797Z,97872.94
2022-08-26T01:50:54.931Z,97875.25
2022-08-26T01:51:59.192Z,97870.28
2022-08-26T01:53:06.708Z,97875.22
2022-08-26T01:54:12.027Z,97873.25
2022-08-26T01:55:33.303Z,97870.56
2022-08-26T01:56:37.074Z,97874.78
2022-08-26T01:57:40.571Z,97869.50
2022-08-26T01:58:52.834Z,97867.19
2022-08-26T02:00:00.306Z,97875.16
2022-08-26T02:01:04.132Z,97870.59
2022-08-26T02:02:11.203Z,97871.75
2022-08-26T02:03:17.510Z,97878.19
2022-08-26T02:04:32.564Z,97876.69
2022-08-26T02:05:35.704Z,97876.31
2022-08-26T02:06:39.477Z,97872.47
2022-08-26T02:07:45.057Z,97865.25
2022-08-26T02:08:52.556Z,97866.41
2022-08-26T02:09:55.774Z,97867.56
2022-08-26T02:10:58.711Z,97868.66
2022-08-26T02:12:02.103Z,97869.44
2022-08-26T02:13:08.394Z,97867.97
2022-08-26T02:14:34.877Z,97869.44
2022-08-26T02:15:44.783Z,97869.88
2022-08-26T02:16:50.956Z,97866.84
2022-08-26T02:17:54.169Z,97868.00
2022-08-26T02:19:01.997Z,97861.16
2022-08-26T02:20:07.626Z,97866.50
2022-08-26T02:21:17.473Z,97870.28
2022-08-26T02:22:23.015Z,97866.47
2022-08-26T02:23:27.784Z,97861.16
2022-08-26T02:24:49.673Z,97862.69
2022-08-26T02:25:52.434Z,97863.47
2022-08-26T02:26:57.869Z,97866.50
2022-08-26T02:28:00.993Z,97867.25
2022-08-26T02:29:13.532Z,97866.13
2022-08-26T02:30:27.344Z,97861.56
2022-08-26T02:31:31.471Z,97870.31
2022-08-26T02:32:35.126Z,97861.91
2022-08-26T02:33:38.429Z,97869.56
2022-08-26T02:34:46.311Z,97870.69
2022-08-26T02:35:49.258Z,97856.56
2022-08-26T02:36:52.150Z,97858.09
2022-08-26T02:37:55.198Z,97860.38
2022-08-26T02:38:59.664Z,97864.59
2022-08-26T02:40:02.741Z,97859.59
2022-08-26T02:41:06.183Z,97864.19
2022-08-26T02:42:11.639Z,97856.97
2022-08-26T02:43:14.443Z,97863.81
2022-08-26T02:44:17.785Z,97858.84
2022-08-26T02:45:25.270Z,97861.16
2022-08-26T02:46:30.144Z,97857.75
2022-08-26T02:47:34.288Z,97853.16
2022-08-26T02:48:37.775Z,97853.16
2022-08-26T02:49:44.374Z,97859.66
2022-08-26T02:50:50.046Z,97853.91
2022-08-26T02:51:53.326Z,97856.63
2022-08-26T02:52:56.504Z,97859.28
2022-08-26T02:53:59.327Z,97858.19
2022-08-26T02:55:02.252Z,97857.03
2022-08-26T02:56:07.949Z,97855.09
2022-08-26T02:57:11.847Z,97863.16
2022-08-26T02:58:15.622Z,97861.97
2022-08-26T02:59:18.973Z,97859.69
2022-08-26T03:00:22.059Z,97854.38
2022-08-26T03:01:31.759Z,97861.25
2022-08-26T03:02:34.895Z,97860.09
2022-08-26T03:03:37.663Z,97851.72
2022-08-26T03:04:41.643Z,97855.91
2022-08-26T03:06:01.571Z,97863.53
2022-08-26T03:07:05.001Z,97854.41
2022-08-26T03:08:12.038Z,97850.97
2022-08-26T03:09:18.667Z,97852.84
2022-08-26T03:10:21.992Z,97850.19
2022-08-26T03:11:25.527Z,97849.81
2022-08-26T03:12:31.613Z,97852.84
2022-08-26T03:13:36.617Z,97849.81
2022-08-26T03:14:39.528Z,97844.09
2022-08-26T03:15:47.656Z,97845.25
2022-08-26T03:16:54.340Z,97845.25
2022-08-26T03:17:57.199Z,97842.56
2022-08-26T03:19:00.499Z,97841.03
2022-08-26T03:21:15.841Z,97838.34
2022-08-26T03:22:21.123Z,97846.38
2022-08-26T03:23:24.006Z,97843.31
2022-08-26T03:24:26.957Z,97839.88
2022-08-26T03:25:29.767Z,97841.81
2022-08-26T03:26:32.555Z,97836.87
2022-08-26T03:27:35.404Z,97834.19
2022-08-26T03:28:58.879Z,97839.50
2022-08-26T03:30:20.760Z,97838.38
2022-08-26T03:31:24.630Z,97844.47
2022-08-26T03:32:27.590Z,97836.84
2022-08-26T03:33:35.233Z,97831.09
2022-08-26T03:34:38.701Z,97837.22
2022-08-26T03:35:43.761Z,97840.25
2022-08-26T03:36:50.465Z,97828.44
2022-08-26T03:37:54.124Z,97833.00
2022-08-26T03:38:57.284Z,97839.50
2022-08-26T03:40:01.315Z,97834.53
2022-08-26T03:41:04.189Z,97839.88
2022-08-26T03:42:10.799Z,97831.88
2022-08-26T03:43:16.191Z,97839.47
2022-08-26T03:44:19.057Z,97834.53
2022-08-26T03:45:22.315Z,97833.03
2022-08-26T03:46:25.468Z,97833.00
2022-08-26T03:47:31.023Z,97843.31
2022-08-26T03:48:34.376Z,97839.91
2022-08-26T03:49:38.198Z,97836.84
2022-08-26T03:50:42.779Z,97831.50
2022-08-26T03:51:46.019Z,97828.44
2022-08-26T03:52:49.194Z,97832.66
2022-08-26T03:53:52.063Z,97835.31
2022-08-26T03:54:55.070Z,97832.66
2022-08-26T03:55:58.058Z,97831.88
2022-08-26T03:57:00.949Z,97835.31
2022-08-26T03:58:04.374Z,97838.00
2022-08-26T03:59:07.807Z,97824.62
2022-08-26T04:00:18.376Z,97834.94
2022-08-26T04:01:21.443Z,97828.44
2022-08-26T04:02:24.750Z,97835.31
2022-08-26T04:03:46.941Z,97831.50
2022-08-26T04:04:49.697Z,97830.34
2022-08-26T04:05:56.263Z,97827.31
2022-08-26T04:07:00.164Z,97825.41
2022-08-26T04:08:07.321Z,97832.66
2022-08-26T04:09:13.776Z,97826.91
2022-08-26T04:10:20.361Z,97826.53
2022-08-26T04:11:27.043Z,97825.38
2022-08-26T04:12:30.160Z,97833.00
2022-08-26T04:13:33.924Z,97831.88
2022-08-26T04:14:37.845Z,97830.31
2022-08-26T04:15:42.049Z,97834.16
2022-08-26T04:16:45.863Z,97837.59
2022-08-26T04:17:50.039Z,97842.19
2022-08-26T04:18:53.168Z,97839.50
2022-08-26T04:19:56.099Z,97843.31
2022-08-26T04:21:00.059Z,97844.06
2022-08-26T04:22:03.152Z,97836.81
2022-08-26T04:23:06.131Z,97837.22
2022-08-26T04:24:11.906Z,97836.44
2022-08-26T04:25:15.315Z,97834.91
2022-08-26T04:26:20.762Z,97837.97
2022-08-26T04:27:24.181Z,97834.50
2022-08-26T04:28:29.193Z,97838.34
2022-08-26T04:29:31.999Z,97841.41
2022-08-26T04:30:38.860Z,97834.16
2022-08-26T04:31:42.295Z,97837.94
2022-08-26T04:32:45.831Z,97839.84
2022-08-26T04:33:50.112Z,97842.91
2022-08-26T04:34:52.901Z,97845.19
2022-08-26T04:36:05.789Z,97840.62
2022-08-26T04:37:09.172Z,97843.66
2022-08-26T04:38:17.004Z,97844.78
2022-08-26T04:39:20.998Z,97839.81
2022-08-26T04:40:24.583Z,97843.56
2022-08-26T04:41:31.528Z,97841.69
2022-08-26T04:42:34.827Z,97842.41
2022-08-26T04:43:38.376Z,97843.16
2022-08-26T04:44:41.816Z,97845.03
2022-08-26T04:45:44.996Z,97844.63
2022-08-26T04:46:48.411Z,97842.34
2022-08-26T04:47:59.351Z,97852.31
2022-08-26T04:49:02.877Z,97840.91
2022-08-26T04:50:07.521Z,97840.91
2022-08-26T04:51:10.875Z,97847.03
2022-08-26T04:52:13.950Z,97852.31
2022-08-26T04:53:16.795Z,97842.72
2022-08-26T04:54:20.330Z,97849.94
2022-08-26T04:55:38.261Z,97846.84
2022-08-26T04:56:45.033Z,97836.59
2022-08-26T04:57:48.219Z,97837.78
2022-08-26T04:58:51.229Z,97842.34
2022-08-26T04:59:57.381Z,97842.69
2022-08-26T05:01:00.599Z,97846.09
2022-08-26T05:02:04.056Z,97850.31
2022-08-26T05:03:10.491Z,97846.88
2022-08-26T05:04:16.305Z,97854.50
2022-08-26T05:05:22.011Z,97840.38
2022-08-26T05:06:26.205Z,97853.69
2022-08-26T05:07:29.582Z,97851.44
2022-08-26T05:08:34.792Z,97844.94
2022-08-26T05:09:40.671Z,97854.78
2022-08-26T05:10:54.796Z,97853.28
2022-08-26T05:11:59.532Z,97851.00
2022-08-26T05:13:03.709Z,97857.09
2022-08-26T05:14:13.768Z,97850.66
2022-08-26T05:15:16.717Z,97852.19
2022-08-26T05:16:20.189Z,97855.53
2022-08-26T05:17:23.332Z,97849.50
2022-08-26T05:18:27.886Z,97854.03
2022-08-26T05:19:31.613Z,97858.59
2022-08-26T05:20:45.172Z,97852.97
2022-08-26T05:21:50.155Z,97845.69
2022-08-26T05:22:53.016Z,97849.19
2022-08-26T05:23:57.041Z,97852.59
2022-08-26T05:24:59.892Z,97854.91
2022-08-26T05:26:07.036Z,97849.19
2022-08-26T05:27:11.480Z,97854.13
2022-08-26T05:28:17.159Z,97853.75
2022-08-26T05:29:19.970Z,97854.91
2022-08-26T05:30:23.288Z,97845.00
2022-08-26T05:31:32.235Z,97853.03
2022-08-26T05:32:35.103Z,97854.19
2022-08-26T05:33:37.969Z,97848.16
2022-08-26T05:34:44.305Z,97853.06
2022-08-26T05:35:48.893Z,97852.00
2022-08-26T05:36:52.732Z,97847.03
2022-08-26T05:37:55.444Z,97852.00
2022-08-26T05:38:58.643Z,97855.81
2022-08-26T05:40:04.434Z,97856.09
2022-08-26T05:41:16.628Z,97860.34
2022-08-26T05:42:20.314Z,97849.66
2022-08-26T05:43:23.055Z,97855.03
2022-08-26T05:44:26.007Z,97857.34
2022-08-26T05:45:28.809Z,97858.13
2022-08-26T05:46:31.902Z,97860.44
2022-08-26T05:47:34.779Z,97853.19
2022-08-26T05:48:38.313Z,97863.12
2022-08-26T05:49:49.268Z,97861.59
2022-08-26T05:50:54.762Z,97859.72
2022-08-26T05:51:57.834Z,97865.09
2022-08-26T05:53:01.032Z,97859.75
2022-08-26T05:54:08.326Z,97865.88
2022-08-26T05:55:13.543Z,97861.66
2022-08-26T05:56:16.666Z,97865.88
2022-08-26T05:57:19.470Z,97870.06
2022-08-26T05:58:27.474Z,97867.78
2022-08-26T05:59:30.661Z,97865.09
2022-08-26T06:00:35.302Z,97868.91
2022-08-26T06:01:39.986Z,97860.53
2022-08-26T06:02:43.009Z,97867.00
2022-08-26T06:03:49.004Z,97873.87
2022-08-26T06:04:51.965Z,97879.94
2022-08-26T06:05:55.434Z,97866.59
2022-08-26T06:06:58.840Z,97875.75
2022-08-26T06:08:19.390Z,97867.31
2022-08-26T06:09:22.443Z,97876.47
2022-08-26T06:10:32.622Z,97868.78
2022-08-26T06:11:35.783Z,97867.25
2022-08-26T06:12:39.541Z,97866.47
2022-08-26T06:13:42.870Z,97872.59
2022-08-26T06:14:45.680Z,97872.19
2022-08-26T06:15:52.043Z,97874.81
2022-08-26T06:16:55.233Z,97872.53
2022-08-26T06:17:58.112Z,97868.28
2022-08-26T06:19:03.708Z,97873.59
2022-08-26T06:20:13.832Z,97869.34
2022-08-26T06:21:27.407Z,97876.63
2022-08-26T06:23:02.680Z,97879.63
2022-08-26T06:24:32.592Z,97878.00
2022-08-26T06:25:39.177Z,97880.66
2022-08-26T06:26:50.352Z,97883.28
2022-08-26T06:27:53.614Z,97873.59
2022-08-26T06:28:56.809Z,97881.28
2022-08-26T06:29:59.587Z,97873.69
2022-08-26T06:31:04.026Z,97875.25
2022-08-26T06:32:07.370Z,97878.22
2022-08-26T06:33:11.773Z,97878.19
2022-08-26T06:34:14.990Z,97884.66
2022-08-26T06:35:18.471Z,97880.81
2022-08-26T06:36:25.639Z,97881.09
2022-08-26T06:37:28.710Z,97876.22
2022-08-26T06:38:32.135Z,97881.63
2022-08-26T06:39:35.420Z,97881.66
2022-08-26T06:40:49.005Z,97878.47
2022-08-26T06:41:52.309Z,97881.44
2022-08-26T06:42:55.119Z,97879.31
2022-08-26T06:43:58.610Z,97878.41
2022-08-26T06:45:01.682Z,97879.91
2022-08-26T06:46:11.670Z,97875.53
2022-08-26T06:47:14.779Z,97871.19
2022-08-26T06:48:21.132Z,97877.47
2022-08-26T06:49:26.516Z,97876.25
2022-08-26T06:50:30.384Z,97877.81
2022-08-26T06:51:36.498Z,97887.16
2022-08-26T06:52:42.258Z,97873.97
2022-08-26T06:53:47.293Z,97874.31
2022-08-26T06:54:51.170Z,97877.53
2022-08-26T06:55:54.046Z,97872.38
2022-08-26T06:56:57.407Z,97876.56
2022-08-26T06:58:00.190Z,97874.69
2022-08-26T06:59:04.364Z,97878.44
2022-08-26T07:00:11.911Z,97879.94
2022-08-26T07:01:23.769Z,97873.56
2022-08-26T07:02:28.528Z,97880.38
2022-08-26T07:03:31.692Z,97874.41
2022-08-26T07:04:42.435Z,97878.94
2022-08-26T07:05:45.502Z,97885.28
2022-08-26T07:06:50.337Z,97880.56
2022-08-26T07:07:58.250Z,97873.75
2022-08-26T07:09:05.300Z,97872.19
2022-08-26T07:10:08.920Z,97882.37
2022-08-26T07:11:12.510Z,97883.66
2022-08-26T07:12:15.387Z,97878.31
2022-08-26T07:13:18.541Z,97878.91
2022-08-26T07:14:34.955Z,97871.94
2022-08-26T07:15:42.464Z,97873.47
2022-08-26T07:16:45.352Z,97876.84
2022-08-26T07:17:48.235Z,97875.72
2022-08-26T07:18:53.303Z,97874.63
2022-08-26T07:19:56.258Z,97875.59
2022-08-26T07:21:01.882Z,97877.72
2022-08-26T07:22:06.764Z,97887.31
2022-08-26T07:23:11.791Z,97878.41
2022-08-26T07:24:15.714Z,97879.16
2022-08-26T07:25:19.461Z,97885.38
2022-08-26T07:26:26.427Z,97886.06
2022-08-26T07:27:31.436Z,97873.91
2022-08-26T07:28:34.527Z,97875.81
2022-08-26T07:29:39.647Z,97881.72
2022-08-26T07:30:42.781Z,97878.38
2022-08-26T07:31:46.154Z,97870.09
2022-08-26T07:32:52.606Z,97873.91
2022-08-26T07:33:55.480Z,97878.84
2022-08-26T07:34:58.641Z,97873.19
2022-08-26T07:36:01.650Z,97879.69
2022-08-26T07:37:08.756Z,97871.22
2022-08-26T07:38:13.522Z,97867.94
2022-08-26T07:39:16.966Z,97865.81
2022-08-26T07:40:19.934Z,97876.34
2022-08-26T07:41:24.953Z,97866.22
2022-08-26T07:42:27.765Z,97868.28
2022-08-26T07:43:31.166Z,97868.88
2022-08-26T07:44:35.145Z,97877.16
2022-08-26T07:45:38.332Z,97872.09
2022-08-26T07:46:41.772Z,97869.84
2022-08-26T07:47:48.030Z,97873.25
2022-08-26T07:48:51.687Z,97873.28
2022-08-26T07:49:58.486Z,97868.78
2022-08-26T07:51:01.560Z,97874.87
2022-08-26T07:52:06.176Z,97875.44
2022-08-26T07:53:10.766Z,97878.09
2022-08-26T07:54:13.805Z,97879.22
2022-08-26T07:55:17.729Z,97871.12
2022-08-26T07:56:24.371Z,97863.56
2022-08-26T07:57:28.755Z,97874.09
2022-08-26T07:58:32.087Z,97882.41
2022-08-26T07:59:34.912Z,97877.09
2022-08-26T08:00:37.884Z,97883.97
2022-08-26T08:01:41.124Z,97879.63
2022-08-26T08:02:47.805Z,97880.88
2022-08-26T08:03:54.029Z,97878.56
2022-08-26T08:04:58.166Z,97875.91
2022-08-26T08:06:01.149Z,97875.72
2022-08-26T08:07:04.094Z,97868.03
2022-08-26T08:08:26.988Z,97871.78
2022-08-26T08:09:30.802Z,97880.78
2022-08-26T08:10:36.735Z,97874.47
2022-08-26T08:11:40.030Z,97869.28
2022-08-26T08:12:43.590Z,97874.56
2022-08-26T08:13:46.529Z,97874.03
2022-08-26T08:14:50.222Z,97875.56
2022-08-26T08:15:53.016Z,97876.84
2022-08-26T08:16:56.186Z,97876.19
2022-08-26T08:18:00.942Z,97871.03
2022-08-26T08:19:04.003Z,97869.56
2022-08-26T08:20:09.002Z,97866.41
2022-08-26T08:21:21.669Z,97878.19
2022-08-26T08:22:25.660Z,97877.94
2022-08-26T08:23:31.851Z,97872.72
2022-08-26T08:24:35.558Z,97870.91
2022-08-26T08:25:38.629Z,97876.56
2022-08-26T08:26:42.013Z,97877.06
2022-08-26T08:27:51.102Z,97874.25
2022-08-26T08:28:55.794Z,97877.62
2022-08-26T08:29:58.639Z,97868.00
2022-08-26T08:31:02.350Z,97873.47
2022-08-26T08:32:06.596Z,97870.59
2022-08-26T08:33:14.570Z,97874.69
2022-08-26T08:34:18.419Z,97875.63
2022-08-26T08:35:23.228Z,97873.16
2022-08-26T08:36:26.281Z,97879.28
2022-08-26T08:37:39.126Z,97877.19
2022-08-26T08:38:42.740Z,97876.38
2022-08-26T08:39:46.317Z,97870.06
2022-08-26T08:40:51.773Z,97867.87
2022-08-26T08:42:30.606Z,97865.41
2022-08-26T08:43:42.178Z,97868.22
2022-08-26T08:44:52.101Z,97873.00
2022-08-26T08:46:04.410Z,97866.44
2022-08-26T08:47:19.575Z,97868.00
2022-08-26T08:48:33.643Z,97868.78
2022-08-26T08:49:36.632Z,97868.03
2022-08-26T08:50:50.330Z,97868.94
2022-08-26T08:52:07.797Z,97871.75
2022-08-26T08:53:18.002Z,97867.13
2022-08-26T08:54:22.027Z,97871.62
2022-08-26T08:55:31.602Z,97872.69
2022-08-26T08:56:43.137Z,97867.19
2022-08-26T08:58:05.834Z,97875.94
2022-08-26T08:59:16.721Z,97864.50
2022-08-26T09:00:30.265Z,97860.56
2022-08-26T09:01:53.941Z,97861.34
2022-08-26T09:03:04.031Z,97853.72
2022-08-26T09:04:17.222Z,97852.88
2022-08-26T09:05:35.760Z,97850.44
2022-08-26T09:06:39.108Z,97849.94
2022-08-26T09:07:52.761Z,97853.38
2022-08-26T09:08:56.669Z,97848.75
2022-08-26T09:10:39.699Z,97855.47
2022-08-26T09:11:43.651Z,97849.00
2022-08-26T09:12:48.328Z,97858.28
2022-08-26T09:13:54.660Z,97851.28
2022-08-26T09:15:04.050Z,97850.47
2022-08-26T09:16:25.062Z,97853.31
2022-08-26T09:17:44.687Z,97850.56
2022-08-26T09:19:14.728Z,97848.09
2022-08-26T09:20:33.998Z,97841.56
2022-08-26T09:21:37.742Z,97850.69
2022-08-26T09:22:44.184Z,97844.72
2022-08-26T09:23:49.674Z,97842.22
2022-08-26T09:24:53.090Z,97836.78
2022-08-26T09:25:57.517Z,97839.28
2022-08-26T09:27:01.223Z,97834.94
2022-08-26T09:28:15.334Z,97839.62
2022-08-26T09:29:27.535Z,97834.13
2022-08-26T09:30:35.030Z,97828.19
2022-08-26T09:31:42.396Z,97833.50
2022-08-26T09:32:59.134Z,97831.03
2022-08-26T09:34:17.324Z,97839.41
2022-08-26T09:35:39.710Z,97835.41
2022-08-26T09:36:49.239Z,97827.84
2022-08-26T09:39:00.341Z,97829.78
2022-08-26T09:40:34.861Z,97838.63
2022-08-26T09:41:38.071Z,97823.34
2022-08-26T09:42:40.905Z,97832.94
2022-08-26T09:44:14.614Z,97834.97
2022-08-26T09:45:28.567Z,97827.94
2022-08-26T09:46:33.349Z,97830.38
2022-08-26T09:47:48.354Z,97833.66
2022-08-26T09:48:51.750Z,97830.66
2022-08-26T09:50:34.622Z,97827.25
2022-08-26T09:51:37.751Z,97832.53
2022-08-26T09:52:45.542Z,97833.47
2022-08-26T09:53:58.027Z,97829.97
2022-08-26T09:55:06.862Z,97832.53
2022-08-26T09:56:29.292Z,97827.09
2022-08-26T09:57:44.940Z,97830.19
2022-08-26T09:58:48.545Z,97830.19
2022-08-26T09:59:51.688Z,97835.47
2022-08-26T10:00:58.032Z,97824.19
2022-08-26T10:02:32.740Z,97824.62
2022-08-26T10:03:39.836Z,97825.50
2022-08-26T10:04:51.514Z,97826.06
2022-08-26T10:06:00.995Z,97820.41
2022-08-26T10:07:08.418Z,97825.91
2022-08-26T10:08:25.151Z,97822.88
2022-08-26T10:09:30.015Z,97829.81
2022-08-26T10:10:40.566Z,97823.16
2022-08-26T10:11:55.574Z,97818.00
2022-08-26T10:13:29.523Z,97817.16
2022-08-26T10:14:46.956Z,97821.56
2022-08-26T10:16:16.688Z,97824.97
2022-08-26T10:17:37.344Z,97817.59
2022-08-26T10:18:48.523Z,97817.34
2022-08-26T10:19:59.613Z,97825.22
2022-08-26T10:21:13.224Z,97821.97
2022-08-26T10:22:26.026Z,97817.81
2022-08-26T10:23:33.039Z,97816.19
2022-08-26T10:24:44.419Z,97817.94
2022-08-26T10:26:05.375Z,97820.41
2022-08-26T10:27:12.732Z,97819.72
2022-08-26T10:28:30.335Z,97816.84
2022-08-26T10:29:44.682Z,97811.56
2022-08-26T10:30:56.885Z,97815.66
2022-08-26T10:32:07.210Z,97815.75
2022-08-26T10:33:13.392Z,97808.53
2022-08-26T10:34:18.331Z,97808.34
2022-08-26T10:35:24.559Z,97804.09
2022-08-26T10:37:14.784Z,97799.66
2022-08-26T10:38:17.418Z,97801.00
2022-08-26T10:39:29.677Z,97806.59
2022-08-26T10:40:50.327Z,97807.09
2022-08-26T10:42:05.341Z,97797.69
2022-08-26T10:43:34.776Z,97797.84
2022-08-26T10:44:43.846Z,97799.09
2022-08-26T10:45:53.229Z,97797.66
2022-08-26T10:47:18.797Z,97798.06
2022-08-26T10:48:56.755Z,97793.72
2022-08-26T10:50:05.199Z,97789.59
2022-08-26T10:51:12.780Z,97791.69
2022-08-26T10:52:39.625Z,97788.06
2022-08-26T10:54:01.902Z,97791.88
2022-08-26T10:55:17.572Z,97790.13
2022-08-26T10:56:48.596Z,97786.59
2022-08-26T10:58:26.220Z,97784.69
2022-08-26T10:59:51.669Z,97790.84
2022-08-26T11:01:43.159Z,97784.03
2022-08-26T11:02:50.571Z,97787.47
2022-08-26T11:04:19.451Z,97778.19
2022-08-26T11:05:25.532Z,97785.75
2022-08-26T11:06:31.547Z,97777.72
2022-08-26T11:07:46.466Z,97779.69
2022-08-26T11:08:54.644Z,97781.13
2022-08-26T11:10:07.371Z,97786.69
2022-08-26T11:11:10.260Z,97778.91
2022-08-26T11:12:35.384Z,97783.53
2022-08-26T11:13:56.536Z,97784.84
2022-08-26T11:14:59.709Z,97774.44
2022-08-26T11:16:02.799Z,97775.37
2022-08-26T11:17:12.107Z,97772.97
2022-08-26T11:18:37.732Z,97778.13
2022-08-26T11:19:59.622Z,97774.31
2022-08-26T11:21:47.709Z,97776.53
2022-08-26T11:22:54.958Z,97768.44
2022-08-26T11:23:57.720Z,97770.97
2022-08-26T11:25:04.394Z,97774.59
2022-08-26T11:26:35.869Z,97766.97
2022-08-26T11:27:46.626Z,97762.19
2022-08-26T11:28:53.838Z,97768.19
2022-08-26T11:30:10.071Z,97757.75
2022-08-26T11:31:19.115Z,97762.94
2022-08-26T11:32:45.215Z,97754.38
2022-08-26T11:33:58.128Z,97759.81
2022-08-26T11:35:19.888Z,97752.56
2022-08-26T11:36:36.110Z,97753.03
2022-08-26T11:37:48.495Z,97756.81
2022-08-26T11:38:51.744Z,97754.41
2022-08-26T11:39:57.303Z,97748.56
2022-08-26T11:41:09.167Z,97754.19
2022-08-26T11:42:32.210Z,97744.84
2022-08-26T11:43:36.738Z,97750.31
2022-08-26T11:44:49.343Z,97750.69
2022-08-26T11:46:04.147Z,97745.44
2022-08-26T11:47:11.504Z,97747.41
2022-08-26T11:48:17.162Z,97748.06
2022-08-26T11:49:20.358Z,97744.50
2022-08-26T11:50:26.694Z,97738.63
2022-08-26T11:51:32.003Z,97736.19
2022-08-26T11:52:35.910Z,97735.34
2022-08-26T11:53:47.205Z,97737.66
2022-08-26T11:55:08.105Z,97736.31
2022-08-26T11:56:33.420Z,97734.84
2022-08-26T11:57:44.943Z,97729.06
2022-08-26T11:58:48.488Z,97735.50
2022-08-26T11:59:51.471Z,97737.00
2022-08-26T12:01:01.885Z,97734.75
2022-08-26T12:02:15.836Z,97729.56
2022-08-26T12:03:35.962Z,97724.50
2022-08-26T12:04:43.517Z,97727.19
2022-08-26T12:05:49.754Z,97727.84
2022-08-26T12:06:53.709Z,97713.91
2022-08-26T12:07:57.322Z,97717.78
2022-08-26T12:09:03.304Z,97721.84
2022-08-26T12:10:11.110Z,97713.38
2022-08-26T12:11:29.238Z,97727.31
2022-08-26T12:12:36.033Z,97720.00
2022-08-26T12:13:39.401Z,97716.75
2022-08-26T12:14:43.883Z,97714.41
2022-08-26T12:15:57.511Z,97716.28
2022-08-26T12:17:14.185Z,97707.81
2022-08-26T12:18:30.166Z,97708.84
2022-08-26T12:19:34.510Z,97706.37
2022-08-26T12:20:46.678Z,97698.84
2022-08-26T12:21:49.873Z,97710.97
2022-08-26T12:22:52.805Z,97709.75
2022-08-26T12:24:00.414Z,97709.06
2022-08-26T12:25:09.657Z,97703.88
2022-08-26T12:26:21.480Z,97696.94
2022-08-26T12:27:54.058Z,97695.19
2022-08-26T12:29:00.555Z,97701.16
2022-08-26T12:30:14.401Z,97690.50
2022-08-26T12:31:43.331Z,97701.34
2022-08-26T12:33:13.333Z,97697.06
2022-08-26T12:34:28.614Z,97689.50
2022-08-26T12:35:35.761Z,97686.63
2022-08-26T12:36:46.909Z,97691.41
2022-08-26T12:37:53.570Z,97692.41
2022-08-26T12:38:58.425Z,97688.16
2022-08-26T12:40:36.047Z,97686.94
2022-08-26T12:41:51.094Z,97674.72
2022-08-26T12:42:54.750Z,97688.25
2022-08-26T12:43:57.814Z,97684.03
2022-08-26T12:45:04.601Z,97686.81
2022-08-26T12:46:24.858Z,97685.03
2022-08-26T12:47:42.405Z,97680.69
2022-08-26T12:48:49.513Z,97676.50
2022-08-26T12:50:06.246Z,97669.37
2022-08-26T12:51:30.753Z,97676.59
2022-08-26T12:52:42.208Z,97678.41
2022-08-26T12:53:44.957Z,97671.63
2022-08-26T12:54:59.785Z,97675.91
2022-08-26T12:56:22.771Z,97670.06
2022-08-26T12:57:31.479Z,97667.16
2022-08-26T12:58:40.226Z,97664.97
2022-08-26T12:59:43.209Z,97664.88
2022-08-26T13:00:58.059Z,97670.28
2022-08-26T13:02:01.178Z,97662.63
2022-08-26T13:03:04.356Z,97671.41
2022-08-26T13:04:07.209Z,97659.41
2022-08-26T13:05:24.697Z,97665.69
2022-08-26T13:06:30.197Z,97657.94
2022-08-26T13:07:33.296Z,97658.94
2022-08-26T13:08:36.454Z,97661.75
2022-08-26T13:09:39.349Z,97659.19
2022-08-26T13:10:46.974Z,97652.78
2022-08-26T13:11:49.690Z,97644.09
2022-08-26T13:12:55.855Z,97657.09
2022-08-26T13:14:09.100Z,97654.88
2022-08-26T13:15:12.900Z,97654.69
2022-08-26T13:16:16.206Z,97649.62
2022-08-26T13:17:19.212Z,97645.75
2022-08-26T13:18:22.338Z,97642.66
2022-08-26T13:19:26.751Z,97636.41
2022-08-26T13:20:29.952Z,97641.94
2022-08-26T13:21:37.387Z,97639.88